Time;durP1;ratioP1;P1;durP2;ratioP2;P2;SDS_P1;SDS_P2;PMS_P1;PMS_P2;Temp;Humidity;BMP_temperature;BMP_pressure;BME280_temperature;BME280_humidity;BME280_pressure;Samples;Min_cycle;Max_cycle;Signal;HPM_P1;HPM_P2
2020/12/23 00:00:54;;;;;;;13.98;9.43;;;9.90;93.80;;;;;;2057743;28;20038;-80
2020/12/23 00:01:59;;;;;;;13.23;9.35;;;9.90;93.80;;;;;;2057047;28;20034;-80
2020/12/23 00:02:59;;;;;;;16.25;10.18;;;9.90;93.80;;;;;;2056332;28;20033;-80
2020/12/23 00:04:00;;;;;;;13.73;9.57;;;9.90;93.80;;;;;;2057844;28;20045;-80
2020/12/23 00:05:05;;;;;;;15.90;9.90;;;9.90;93.80;;;;;;2049768;29;20074;-80
2020/12/23 00:06:05;;;;;;;13.98;9.48;;;9.90;93.80;;;;;;2055054;28;20509;-81
2020/12/23 00:07:06;;;;;;;14.88;10.38;;;9.90;93.80;;;;;;2058755;28;20125;-80
2020/12/23 00:08:07;;;;;;;15.23;9.40;;;9.90;93.80;;;;;;2056718;28;20027;-80
2020/12/23 00:09:08;;;;;;;13.65;10.20;;;9.90;93.80;;;;;;2057372;28;20057;-80
2020/12/23 00:10:09;;;;;;;14.60;10.13;;;9.90;93.80;;;;;;2056550;28;20026;-80
2020/12/23 00:11:13;;;;;;;14.65;9.20;;;9.90;93.90;;;;;;2057809;28;20022;-80
2020/12/23 00:12:14;;;;;;;12.90;8.88;;;9.90;93.90;;;;;;2067734;28;20031;-81
2020/12/23 00:13:15;;;;;;;13.20;9.57;;;9.90;93.90;;;;;;2072567;28;20007;-79
2020/12/23 00:14:15;;;;;;;14.63;9.63;;;9.90;93.80;;;;;;2059853;28;20042;-80
2020/12/23 00:15:16;;;;;;;14.43;9.93;;;9.90;93.80;;;;;;2059849;28;20034;-80
2020/12/23 00:16:16;;;;;;;13.48;9.55;;;9.90;93.80;;;;;;2060362;28;20043;-80
2020/12/23 00:17:18;;;;;;;12.98;9.25;;;9.90;93.80;;;;;;2055433;28;20042;-80
2020/12/23 00:18:19;;;;;;;12.18;9.02;;;9.90;93.80;;;;;;2043739;29;20413;-80
2020/12/23 00:19:20;;;;;;;14.70;9.85;;;9.90;93.80;;;;;;2041804;29;20032;-80
2020/12/23 00:20:21;;;;;;;14.20;10.30;;;9.90;93.90;;;;;;2056654;28;20035;-80
2020/12/23 00:21:21;;;;;;;14.48;10.40;;;9.90;93.90;;;;;;2054740;28;20296;-79
2020/12/23 00:22:22;;;;;;;13.68;10.05;;;9.90;93.80;;;;;;2057358;28;20449;-80
2020/12/23 00:23:22;;;;;;;14.32;9.50;;;9.90;93.90;;;;;;2057199;28;20034;-80
2020/12/23 00:24:23;;;;;;;15.60;10.20;;;9.90;93.90;;;;;;2057630;28;20031;-80
2020/12/23 00:25:24;;;;;;;14.85;10.27;;;9.90;93.90;;;;;;2058211;28;20037;-80
2020/12/23 00:26:25;;;;;;;14.10;9.88;;;9.90;93.90;;;;;;2052439;28;20405;-80
2020/12/23 00:27:26;;;;;;;14.20;10.02;;;9.90;93.90;;;;;;2045267;28;20073;-80
2020/12/23 00:28:26;;;;;;;16.25;10.55;;;9.90;93.90;;;;;;2057575;28;20502;-80
2020/12/23 00:29:27;;;;;;;13.27;9.55;;;9.90;93.90;;;;;;2058282;28;20031;-80
2020/12/23 00:30:27;;;;;;;14.52;10.30;;;9.90;93.90;;;;;;2057516;28;20106;-80
2020/12/23 00:31:28;;;;;;;13.77;10.30;;;9.90;93.90;;;;;;2044756;28;20572;-80
2020/12/23 00:32:29;;;;;;;14.05;9.90;;;9.90;93.90;;;;;;2049110;28;20531;-80
2020/12/23 00:33:30;;;;;;;14.00;9.40;;;9.90;93.90;;;;;;2057593;28;20185;-80
2020/12/23 00:34:31;;;;;;;15.20;10.27;;;9.90;93.90;;;;;;2058123;28;20066;-80
2020/12/23 00:35:31;;;;;;;13.52;9.70;;;10.00;93.90;;;;;;2056708;28;20024;-80
2020/12/23 00:36:32;;;;;;;14.27;9.77;;;10.00;93.90;;;;;;2049058;28;20039;-80
2020/12/23 00:37:33;;;;;;;14.48;9.82;;;10.00;93.90;;;;;;2041458;28;20066;-79
2020/12/23 00:38:33;;;;;;;13.05;9.93;;;10.00;93.90;;;;;;2057438;28;20043;-80
2020/12/23 00:39:34;;;;;;;13.50;9.82;;;10.00;93.90;;;;;;2054536;28;20024;-80
2020/12/23 00:40:35;;;;;;;13.63;9.85;;;10.00;93.90;;;;;;2050211;28;20023;-79
2020/12/23 00:41:35;;;;;;;14.10;9.68;;;10.00;93.80;;;;;;2049359;28;20063;-79
2020/12/23 00:42:36;;;;;;;15.40;10.32;;;10.00;93.90;;;;;;2040692;29;20038;-79
2020/12/23 00:43:37;;;;;;;14.77;10.15;;;10.00;93.80;;;;;;2055748;28;20019;-80
2020/12/23 00:44:37;;;;;;;14.65;10.02;;;10.00;93.80;;;;;;2051282;28;20023;-80
2020/12/23 00:45:38;;;;;;;15.30;10.52;;;10.00;93.80;;;;;;2049440;28;20031;-80
2020/12/23 00:46:39;;;;;;;13.90;9.95;;;10.00;93.90;;;;;;2053227;28;20113;-80
2020/12/23 00:47:39;;;;;;;17.27;11.02;;;10.00;93.90;;;;;;2050226;28;20220;-80
2020/12/23 00:48:41;;;;;;;15.15;10.15;;;9.90;93.80;;;;;;2055765;28;20082;-80
2020/12/23 00:49:41;;;;;;;17.10;11.05;;;9.90;93.80;;;;;;2051969;28;20499;-80
2020/12/23 00:50:42;;;;;;;15.90;10.70;;;9.90;93.90;;;;;;2049453;28;20028;-80
2020/12/23 00:51:43;;;;;;;15.98;11.05;;;9.90;93.90;;;;;;2046555;28;20126;-80
2020/12/23 00:52:43;;;;;;;15.43;10.43;;;10.00;93.90;;;;;;2049529;28;20063;-80
2020/12/23 00:53:44;;;;;;;17.52;10.80;;;9.90;93.90;;;;;;2050369;28;20031;-80
2020/12/23 00:54:45;;;;;;;15.32;10.68;;;9.90;93.90;;;;;;2052088;28;20034;-81
2020/12/23 00:55:46;;;;;;;15.57;10.82;;;9.90;93.90;;;;;;2058010;28;20089;-80
2020/12/23 00:56:46;;;;;;;16.75;11.00;;;9.90;93.90;;;;;;2057227;28;20058;-80
2020/12/23 00:57:47;;;;;;;17.15;11.18;;;9.90;93.90;;;;;;2049019;28;20031;-80
2020/12/23 00:58:48;;;;;;;16.13;11.18;;;9.90;93.90;;;;;;2049382;29;20037;-80
2020/12/23 00:59:48;;;;;;;16.60;10.70;;;9.90;93.90;;;;;;2046578;28;20126;-80
2020/12/23 01:00:49;;;;;;;14.40;10.40;;;9.90;93.90;;;;;;2047198;28;20031;-80
2020/12/23 01:01:55;;;;;;;15.95;10.30;;;9.90;93.90;;;;;;2056984;28;20042;-80
2020/12/23 01:02:55;;;;;;;18.73;11.13;;;9.90;93.90;;;;;;2057355;28;20074;-80
2020/12/23 01:03:56;;;;;;;16.40;11.02;;;9.90;93.90;;;;;;2056905;28;20031;-81
2020/12/23 01:04:57;;;;;;;15.48;10.30;;;9.90;93.90;;;;;;2044976;29;20633;-80
2020/12/23 01:05:57;;;;;;;17.15;10.48;;;9.90;93.90;;;;;;2054313;28;20138;-80
2020/12/23 01:06:58;;;;;;;17.33;10.55;;;9.90;94.00;;;;;;2049483;28;20501;-81
2020/12/23 01:07:59;;;;;;;16.45;10.45;;;9.90;94.00;;;;;;2048552;28;20508;-80
2020/12/23 01:08:59;;;;;;;15.63;9.75;;;9.90;94.00;;;;;;2057317;28;20027;-81
2020/12/23 01:10:00;;;;;;;17.20;11.00;;;9.90;94.00;;;;;;2057206;28;20027;-80
2020/12/23 01:11:01;;;;;;;16.08;10.48;;;10.00;94.00;;;;;;2053022;28;20039;-80
2020/12/23 01:12:01;;;;;;;16.58;10.98;;;9.90;94.00;;;;;;2057122;28;20031;-81
2020/12/23 01:13:02;;;;;;;18.40;11.55;;;9.90;94.00;;;;;;2056339;28;20031;-81
2020/12/23 01:14:02;;;;;;;18.88;11.02;;;9.90;93.90;;;;;;2057336;28;20086;-81
2020/12/23 01:15:03;;;;;;;17.98;11.38;;;9.90;94.00;;;;;;2055907;28;20513;-80
2020/12/23 01:16:04;;;;;;;18.92;11.73;;;9.90;94.00;;;;;;2049132;28;20154;-80
2020/12/23 01:17:05;;;;;;;18.60;11.55;;;9.90;93.90;;;;;;2056836;28;20049;-80
2020/12/23 01:18:06;;;;;;;17.73;11.52;;;9.90;93.90;;;;;;2054348;28;20037;-80
2020/12/23 01:19:07;;;;;;;21.40;11.63;;;9.90;93.90;;;;;;2051340;28;20014;-80
2020/12/23 01:20:07;;;;;;;21.33;12.55;;;9.90;93.90;;;;;;2056442;28;20031;-80
2020/12/23 01:21:08;;;;;;;19.30;12.50;;;9.90;94.00;;;;;;2056256;28;20051;-80
2020/12/23 01:22:09;;;;;;;20.88;12.65;;;9.90;94.00;;;;;;2057159;28;20115;-80
2020/12/23 01:23:09;;;;;;;20.60;12.57;;;9.90;94.00;;;;;;2057815;28;20042;-80
2020/12/23 01:24:11;;;;;;;20.50;12.43;;;9.90;94.00;;;;;;2048746;28;20066;-80
2020/12/23 01:25:11;;;;;;;19.20;11.38;;;9.90;94.00;;;;;;2048907;28;20024;-80
2020/12/23 01:26:12;;;;;;;18.25;11.30;;;9.90;94.00;;;;;;2056661;28;20031;-80
2020/12/23 01:27:13;;;;;;;20.85;12.32;;;9.90;94.00;;;;;;2049196;28;20027;-80
2020/12/23 01:28:13;;;;;;;19.88;11.90;;;9.90;94.00;;;;;;2057257;28;20027;-80
2020/12/23 01:29:14;;;;;;;21.70;12.65;;;9.90;94.00;;;;;;2057177;28;20037;-80
2020/12/23 01:30:16;;;;;;;23.15;12.32;;;9.90;94.00;;;;;;2056462;28;20070;-79
2020/12/23 01:31:16;;;;;;;20.73;12.02;;;9.90;94.00;;;;;;2055181;28;20069;-79
2020/12/23 01:32:17;;;;;;;20.17;12.20;;;9.90;94.00;;;;;;2048637;28;20039;-80
2020/12/23 01:33:18;;;;;;;25.05;13.55;;;9.90;94.00;;;;;;2049208;28;20030;-80
2020/12/23 01:34:18;;;;;;;21.17;12.88;;;9.90;94.00;;;;;;2056354;28;20046;-80
2020/12/23 01:35:19;;;;;;;22.05;12.95;;;9.90;94.00;;;;;;2052361;28;20038;-81
2020/12/23 01:36:19;;;;;;;25.70;12.45;;;9.90;94.00;;;;;;2049673;28;20534;-80
2020/12/23 01:37:20;;;;;;;20.75;11.68;;;9.90;94.00;;;;;;2055101;28;20466;-79
2020/12/23 01:38:21;;;;;;;24.20;12.45;;;9.90;94.00;;;;;;2057645;28;20404;-80
2020/12/23 01:39:21;;;;;;;21.60;12.52;;;9.90;94.00;;;;;;2057268;28;20023;-80
2020/12/23 01:40:22;;;;;;;20.90;12.52;;;9.90;94.00;;;;;;2056836;28;20125;-79
2020/12/23 01:41:22;;;;;;;20.15;12.32;;;9.90;94.00;;;;;;2057011;28;20048;-80
2020/12/23 01:42:23;;;;;;;21.33;11.98;;;9.90;94.00;;;;;;2057339;28;20117;-80
2020/12/23 01:43:24;;;;;;;20.55;12.35;;;9.90;94.10;;;;;;2057205;28;20451;-80
2020/12/23 01:44:24;;;;;;;19.77;12.70;;;9.90;94.10;;;;;;2049773;28;20067;-81
2020/12/23 01:45:26;;;;;;;22.70;12.52;;;9.90;94.00;;;;;;2055739;28;20032;-80
2020/12/23 01:46:34;;;;;;;22.77;12.77;;;9.90;94.00;;;;;;2056790;28;20027;-80
2020/12/23 01:47:35;;;;;;;21.75;12.77;;;9.90;94.00;;;;;;2056205;28;20042;-79
2020/12/23 01:48:37;;;;;;;22.20;12.63;;;9.90;94.00;;;;;;2057105;28;20073;-80
2020/12/23 01:49:38;;;;;;;21.70;11.77;;;9.90;94.00;;;;;;2057006;28;20068;-79
2020/12/23 01:50:39;;;;;;;23.15;12.88;;;9.90;94.00;;;;;;2056803;28;20034;-80
2020/12/23 01:51:40;;;;;;;27.65;13.63;;;9.90;94.00;;;;;;2056659;28;20045;-80
2020/12/23 01:52:41;;;;;;;26.27;14.95;;;10.00;94.30;;;;;;2055789;28;20035;-79
2020/12/23 01:53:42;;;;;;;24.55;12.57;;;9.90;94.00;;;;;;2056844;28;20039;-79
2020/12/23 01:54:43;;;;;;;26.42;14.00;;;9.90;94.00;;;;;;2056530;28;20386;-80
2020/12/23 01:55:47;;;;;;;24.13;13.02;;;9.90;94.10;;;;;;2048380;29;20533;-80
2020/12/23 01:56:48;;;;;;;25.60;12.68;;;9.90;94.10;;;;;;2041334;28;20118;-80
2020/12/23 01:57:48;;;;;;;24.02;13.60;;;9.90;94.10;;;;;;2056957;28;20093;-80
2020/12/23 01:58:49;;;;;;;22.25;12.95;;;9.90;94.10;;;;;;2055337;28;20054;-80
2020/12/23 01:59:50;;;;;;;20.23;12.02;;;9.90;94.10;;;;;;2049589;28;20033;-80
2020/12/23 02:00:50;;;;;;;26.70;14.30;;;9.90;94.10;;;;;;2049234;28;20576;-80
2020/12/23 02:02:07;;;;;;;24.80;14.20;;;9.90;94.10;;;;;;2050094;28;20094;-80
2020/12/23 02:03:09;;;;;;;24.02;13.52;;;9.90;94.10;;;;;;2055961;28;20033;-80
2020/12/23 02:04:10;;;;;;;25.00;13.40;;;9.90;94.10;;;;;;2057543;28;20049;-79
2020/12/23 02:05:10;;;;;;;27.08;14.23;;;9.90;94.10;;;;;;2051366;28;20110;-80
2020/12/23 02:06:11;;;;;;;27.10;13.85;;;9.90;94.10;;;;;;2048893;29;20035;-80
2020/12/23 02:07:12;;;;;;;25.48;13.68;;;9.90;94.10;;;;;;2049711;28;20042;-80
2020/12/23 02:08:13;;;;;;;26.63;14.43;;;9.90;94.10;;;;;;2048983;29;20409;-80
2020/12/23 02:09:14;;;;;;;24.95;13.57;;;9.90;94.10;;;;;;2053147;28;20444;-80
2020/12/23 02:10:15;;;;;;;26.27;14.65;;;9.90;94.10;;;;;;2056075;28;20101;-80
2020/12/23 02:11:18;;;;;;;25.17;14.52;;;9.90;94.10;;;;;;2056831;28;20085;-80
2020/12/23 02:12:19;;;;;;;26.70;14.43;;;9.90;94.10;;;;;;2057220;28;20369;-80
2020/12/23 02:13:43;;;;;;;25.60;14.82;;;9.90;94.10;;;;;;2056858;28;20143;-80
2020/12/23 02:14:45;;;;;;;23.83;13.40;;;9.90;94.10;;;;;;2055386;28;20039;-80
2020/12/23 02:15:46;;;;;;;25.02;13.52;;;9.90;94.10;;;;;;2055541;28;20023;-80
2020/12/23 02:16:46;;;;;;;22.58;13.40;;;9.90;94.10;;;;;;2048352;28;20031;-80
2020/12/23 02:17:48;;;;;;;24.23;13.60;;;10.00;94.10;;;;;;2046805;29;20032;-80
2020/12/23 02:18:48;;;;;;;24.30;13.70;;;10.00;94.20;;;;;;2056201;28;20027;-80
2020/12/23 02:19:49;;;;;;;22.83;12.68;;;10.00;94.20;;;;;;2056338;28;20048;-80
2020/12/23 02:20:50;;;;;;;24.30;13.25;;;10.00;94.20;;;;;;2056775;28;20058;-80
2020/12/23 02:21:51;;;;;;;24.90;13.45;;;10.00;94.20;;;;;;2056790;28;20086;-80
2020/12/23 02:22:52;;;;;;;25.20;13.43;;;10.00;94.20;;;;;;2042727;28;20096;-80
2020/12/23 02:23:53;;;;;;;25.98;13.63;;;10.00;94.20;;;;;;2048628;28;20036;-80
2020/12/23 02:24:54;;;;;;;26.77;13.75;;;10.00;94.10;;;;;;2050059;28;20497;-80
2020/12/23 02:25:55;;;;;;;25.23;14.07;;;10.00;94.10;;;;;;2039988;29;20385;-80
2020/12/23 02:26:55;;;;;;;26.75;13.70;;;10.00;94.10;;;;;;2040650;29;20040;-80
2020/12/23 02:27:56;;;;;;;26.40;14.05;;;10.00;94.10;;;;;;2054589;28;20062;-80
2020/12/23 02:28:57;;;;;;;30.98;15.55;;;10.00;94.10;;;;;;2048574;29;20078;-80
2020/12/23 02:29:58;;;;;;;28.88;15.18;;;10.00;94.10;;;;;;2048785;29;20027;-80
2020/12/23 02:31:02;;;;;;;26.80;14.18;;;10.00;94.10;;;;;;2055135;28;20081;-80
2020/12/23 02:32:03;;;;;;;29.38;14.93;;;10.00;94.10;;;;;;2056488;28;20027;-80
2020/12/23 02:33:04;;;;;;;26.20;14.20;;;10.00;94.20;;;;;;2056426;28;20030;-80
2020/12/23 02:34:04;;;;;;;28.90;14.23;;;10.00;94.20;;;;;;2048624;29;20031;-80
2020/12/23 02:35:07;;;;;;;29.58;14.30;;;10.00;94.20;;;;;;2053738;28;20118;-80
2020/12/23 02:36:08;;;;;;;25.33;13.15;;;10.00;94.20;;;;;;2053995;28;20051;-80
2020/12/23 02:37:10;;;;;;;25.17;13.50;;;10.10;94.20;;;;;;2057113;28;20030;-80
2020/12/23 02:38:10;;;;;;;26.45;13.75;;;10.10;94.20;;;;;;2057273;28;20034;-80
2020/12/23 02:39:11;;;;;;;28.75;14.20;;;10.00;94.20;;;;;;2056540;28;20030;-80
2020/12/23 02:40:11;;;;;;;28.60;14.77;;;10.00;94.20;;;;;;2056713;28;20448;-80
2020/12/23 02:41:12;;;;;;;25.38;13.23;;;10.00;94.10;;;;;;2053205;28;20027;-80
2020/12/23 02:42:13;;;;;;;28.45;14.20;;;10.10;94.20;;;;;;2048677;28;20049;-80
2020/12/23 02:43:13;;;;;;;28.92;14.30;;;10.10;94.10;;;;;;2053007;28;20121;-80
2020/12/23 02:44:14;;;;;;;34.53;15.38;;;10.10;94.10;;;;;;2057292;28;20073;-80
2020/12/23 02:45:15;;;;;;;30.52;14.85;;;10.10;94.20;;;;;;2057103;28;20493;-80
2020/12/23 02:46:15;;;;;;;28.80;14.20;;;10.00;94.10;;;;;;2057289;28;20461;-80
2020/12/23 02:47:17;;;;;;;31.27;15.07;;;10.10;94.20;;;;;;2048293;28;20042;-80
2020/12/23 02:48:18;;;;;;;29.20;14.60;;;10.00;94.20;;;;;;2047997;28;20074;-80
2020/12/23 02:49:19;;;;;;;31.80;15.02;;;10.10;94.20;;;;;;2056126;28;20070;-80
2020/12/23 02:50:19;;;;;;;30.65;14.90;;;10.00;94.20;;;;;;2053433;28;20505;-80
2020/12/23 02:51:20;;;;;;;30.92;14.07;;;10.00;94.20;;;;;;2049762;28;20046;-80
2020/12/23 02:52:21;;;;;;;31.27;14.60;;;10.00;94.40;;;;;;2056083;28;20042;-80
2020/12/23 02:53:22;;;;;;;34.58;13.77;;;10.10;94.20;;;;;;2054514;28;20027;-80
2020/12/23 02:54:23;;;;;;;34.75;15.18;;;10.00;94.20;;;;;;2056703;28;20166;-80
2020/12/23 02:55:24;;;;;;;32.60;15.60;;;10.00;94.20;;;;;;2057062;28;20034;-80
2020/12/23 02:56:25;;;;;;;34.85;15.57;;;10.00;94.20;;;;;;2050402;28;20417;-80
2020/12/23 02:57:25;;;;;;;31.33;15.15;;;10.00;94.20;;;;;;2040459;29;20143;-80
2020/12/23 02:58:26;;;;;;;29.30;14.80;;;10.00;94.20;;;;;;2054673;28;20035;-80
2020/12/23 02:59:26;;;;;;;28.00;14.25;;;10.00;94.20;;;;;;2056803;28;20062;-80
2020/12/23 03:00:27;;;;;;;32.20;14.60;;;10.00;94.20;;;;;;2055978;28;20043;-80
2020/12/23 03:01:28;;;;;;;38.85;13.60;;;10.00;94.20;;;;;;2052840;28;20023;-80
2020/12/23 03:02:28;;;;;;;34.63;13.82;;;10.00;94.20;;;;;;2052585;28;20620;-80
2020/12/23 03:03:29;;;;;;;37.55;14.02;;;10.00;94.50;;;;;;2055696;28;20030;-80
2020/12/23 03:04:29;;;;;;;30.80;13.90;;;10.00;94.20;;;;;;2054317;28;20464;-80
2020/12/23 03:05:30;;;;;;;27.65;13.10;;;10.10;94.20;;;;;;2056876;28;20070;-80
2020/12/23 03:06:32;;;;;;;37.40;13.82;;;10.00;94.30;;;;;;2056343;28;20035;-80
2020/12/23 03:07:32;;;;;;;41.13;14.13;;;10.10;94.30;;;;;;2054932;28;20034;-80
2020/12/23 03:08:33;;;;;;;50.70;14.93;;;10.10;94.30;;;;;;2049342;28;20042;-80
2020/12/23 03:09:33;;;;;;;49.70;14.43;;;10.10;94.30;;;;;;2048684;28;20028;-80
2020/12/23 03:10:34;;;;;;;34.85;14.45;;;10.00;94.20;;;;;;2040511;28;20031;-80
2020/12/23 03:11:35;;;;;;;42.00;15.00;;;10.00;94.50;;;;;;2047533;28;20024;-79
2020/12/23 03:12:36;;;;;;;60.47;15.82;;;10.10;94.30;;;;;;2048946;28;20610;-79
2020/12/23 03:13:37;;;;;;;44.00;14.18;;;10.00;94.20;;;;;;2049129;28;20090;-80
2020/12/23 03:14:37;;;;;;;31.73;14.30;;;10.00;94.20;;;;;;2049079;28;20062;-80
2020/12/23 03:15:38;;;;;;;27.33;13.57;;;10.00;94.20;;;;;;2054576;28;20038;-80
2020/12/23 03:16:38;;;;;;;32.47;14.15;;;10.00;94.30;;;;;;2056457;28;20110;-80
2020/12/23 03:17:39;;;;;;;29.60;13.43;;;10.10;94.30;;;;;;2049183;28;20042;-80
2020/12/23 03:18:40;;;;;;;36.00;14.85;;;10.00;94.30;;;;;;2054065;28;20065;-80
2020/12/23 03:19:40;;;;;;;45.63;15.20;;;10.10;94.30;;;;;;2048466;28;20070;-80
2020/12/23 03:20:41;;;;;;;36.75;14.35;;;10.00;94.30;;;;;;2047286;28;20569;-80
2020/12/23 03:21:41;;;;;;;33.03;14.40;;;10.10;94.30;;;;;;2048144;28;20108;-80
2020/12/23 03:22:42;;;;;;;28.65;14.63;;;10.10;94.30;;;;;;2049794;28;20030;-80
2020/12/23 03:23:43;;;;;;;38.72;14.38;;;10.10;94.30;;;;;;2055636;28;20030;-80
2020/12/23 03:24:43;;;;;;;31.17;14.60;;;10.10;94.30;;;;;;2057000;28;20031;-80
2020/12/23 03:25:44;;;;;;;26.95;14.18;;;10.10;94.30;;;;;;2056284;28;20094;-80
2020/12/23 03:26:44;;;;;;;31.27;14.25;;;10.10;94.30;;;;;;2057010;28;20035;-80
2020/12/23 03:27:45;;;;;;;28.55;13.63;;;10.10;94.30;;;;;;2056068;28;20090;-80
2020/12/23 03:28:46;;;;;;;35.03;13.70;;;10.10;94.30;;;;;;2047371;28;20059;-80
2020/12/23 03:29:46;;;;;;;34.97;13.80;;;10.10;94.30;;;;;;2048777;28;20034;-80
2020/12/23 03:30:47;;;;;;;29.60;13.20;;;10.10;94.60;;;;;;2051700;28;20027;-80
2020/12/23 03:31:47;;;;;;;47.15;13.55;;;10.10;94.30;;;;;;2055916;28;20110;-80
2020/12/23 03:32:48;;;;;;;60.78;14.85;;;10.10;94.30;;;;;;2054549;28;20043;-80
2020/12/23 03:33:49;;;;;;;30.13;13.30;;;10.10;94.20;;;;;;2055521;28;20054;-80
2020/12/23 03:34:49;;;;;;;33.20;13.13;;;10.10;94.20;;;;;;2048512;29;20085;-80
2020/12/23 03:35:51;;;;;;;50.13;14.27;;;10.20;94.30;;;;;;2045738;28;20051;-80
2020/12/23 03:36:51;;;;;;;36.60;14.77;;;10.10;94.30;;;;;;2048467;29;20032;-80
2020/12/23 03:37:52;;;;;;;35.83;14.13;;;10.20;94.50;;;;;;2040731;29;20443;-80
2020/12/23 03:38:53;;;;;;;41.85;13.75;;;10.20;94.30;;;;;;2046841;29;20035;-80
2020/12/23 03:39:53;;;;;;;46.50;13.88;;;10.10;94.50;;;;;;2045073;29;20478;-80
2020/12/23 03:40:54;;;;;;;45.58;13.80;;;10.10;94.20;;;;;;2051363;28;20030;-80
2020/12/23 03:41:55;;;;;;;30.73;13.30;;;10.10;94.30;;;;;;2048469;28;20095;-80
2020/12/23 03:42:55;;;;;;;33.10;13.15;;;10.10;94.30;;;;;;2040616;29;20044;-80
2020/12/23 03:43:56;;;;;;;54.33;13.93;;;10.10;94.30;;;;;;2056201;28;20050;-80
2020/12/23 03:44:57;;;;;;;41.63;13.50;;;10.10;94.30;;;;;;2048382;29;20035;-80
2020/12/23 03:45:58;;;;;;;28.20;12.93;;;10.10;94.30;;;;;;2045660;28;20031;-80
2020/12/23 03:46:58;;;;;;;33.55;13.10;;;10.20;94.30;;;;;;2047407;28;20044;-80
2020/12/23 03:47:59;;;;;;;33.05;12.25;;;10.10;94.30;;;;;;2050473;28;20438;-80
2020/12/23 03:48:59;;;;;;;35.90;12.07;;;10.10;94.30;;;;;;2050226;28;20486;-80
2020/12/23 03:50:00;;;;;;;29.98;13.30;;;10.10;94.30;;;;;;2050489;28;20409;-80
2020/12/23 03:51:01;;;;;;;44.88;13.13;;;10.20;94.30;;;;;;2053730;28;20125;-80
2020/12/23 03:52:01;;;;;;;34.17;13.48;;;10.10;94.30;;;;;;2047894;28;20032;-80
2020/12/23 03:53:02;;;;;;;39.88;13.32;;;10.10;94.30;;;;;;2050447;28;20081;-80
2020/12/23 03:54:03;;;;;;;47.50;14.05;;;10.10;94.30;;;;;;2048414;28;20059;-81
2020/12/23 03:55:03;;;;;;;49.10;14.38;;;10.20;94.30;;;;;;2048219;28;20470;-80
2020/12/23 03:56:04;;;;;;;40.72;14.43;;;10.10;94.30;;;;;;2056087;28;20071;-80
2020/12/23 03:57:05;;;;;;;47.97;14.48;;;10.20;94.30;;;;;;2055803;28;20035;-80
2020/12/23 03:58:06;;;;;;;49.58;14.35;;;10.20;94.30;;;;;;2054055;28;20046;-80
2020/12/23 03:59:06;;;;;;;38.28;13.95;;;10.20;94.30;;;;;;2049209;28;20389;-80
2020/12/23 04:00:09;;;;;;;34.58;13.73;;;10.10;94.50;;;;;;2049260;28;20028;-80
2020/12/23 04:01:10;;;;;;;34.10;13.95;;;10.10;94.30;;;;;;2049007;28;20055;-80
2020/12/23 04:02:10;;;;;;;45.00;14.70;;;10.10;94.30;;;;;;2062177;28;20046;-79
2020/12/23 04:03:11;;;;;;;35.08;14.52;;;10.10;94.30;;;;;;2060120;28;20047;-79
2020/12/23 04:04:11;;;;;;;31.50;14.23;;;10.10;94.30;;;;;;2056887;28;20031;-81
2020/12/23 04:05:12;;;;;;;30.58;14.10;;;10.10;94.30;;;;;;2063702;28;20031;-80
2020/12/23 04:06:13;;;;;;;30.92;13.63;;;10.10;94.30;;;;;;2064628;28;20034;-80
2020/12/23 04:07:14;;;;;;;28.40;13.68;;;10.20;94.40;;;;;;2065255;28;20023;-80
2020/12/23 04:08:14;;;;;;;28.23;13.13;;;10.20;94.40;;;;;;2056830;28;20043;-80
2020/12/23 04:09:15;;;;;;;54.45;14.80;;;10.10;94.40;;;;;;2055683;28;20122;-79
2020/12/23 04:10:16;;;;;;;55.10;13.88;;;10.10;94.30;;;;;;2051015;28;20520;-80
2020/12/23 04:11:16;;;;;;;51.83;13.82;;;10.20;94.40;;;;;;2044848;29;20038;-80
2020/12/23 04:12:17;;;;;;;65.55;14.38;;;10.20;94.30;;;;;;2051747;28;20444;-81
2020/12/23 04:13:17;;;;;;;56.58;14.90;;;10.20;94.30;;;;;;2064172;28;20616;-80
2020/12/23 04:14:18;;;;;;;62.90;15.15;;;10.20;94.30;;;;;;2065585;28;20019;-80
2020/12/23 04:15:19;;;;;;;55.58;15.40;;;10.20;94.30;;;;;;2064806;28;20082;-80
2020/12/23 04:16:19;;;;;;;72.53;15.07;;;10.20;94.30;;;;;;2064070;28;20043;-80
2020/12/23 04:17:20;;;;;;;40.35;14.40;;;10.20;94.30;;;;;;2046968;29;20040;-80
2020/12/23 04:18:20;;;;;;;45.30;14.25;;;10.20;94.30;;;;;;2046126;28;20495;-80
2020/12/23 04:19:21;;;;;;;42.60;13.35;;;10.10;94.30;;;;;;2057109;28;20023;-80
2020/12/23 04:20:22;;;;;;;47.55;14.18;;;10.20;94.30;;;;;;2064829;28;20037;-79
2020/12/23 04:21:22;;;;;;;36.13;13.63;;;10.20;94.30;;;;;;2050061;28;20122;-79
2020/12/23 04:22:23;;;;;;;41.47;14.55;;;10.20;94.30;;;;;;2058319;28;20481;-80
2020/12/23 04:23:23;;;;;;;47.10;14.57;;;10.20;94.40;;;;;;2057080;28;20026;-80
2020/12/23 04:24:24;;;;;;;38.38;13.32;;;10.20;94.40;;;;;;2057372;28;20037;-79
2020/12/23 04:25:25;;;;;;;53.95;15.48;;;10.20;94.40;;;;;;2057199;28;20485;-80
2020/12/23 04:26:25;;;;;;;46.30;14.23;;;10.20;94.40;;;;;;2049846;28;20387;-80
2020/12/23 04:27:28;;;;;;;50.70;14.95;;;10.20;94.40;;;;;;2058440;28;20027;-80
2020/12/23 04:28:29;;;;;;;45.83;15.63;;;10.20;94.60;;;;;;2058179;28;20034;-80
2020/12/23 04:29:29;;;;;;;55.90;15.40;;;10.20;94.40;;;;;;2058285;28;20114;-80
2020/12/23 04:30:30;;;;;;;42.38;14.52;;;10.20;94.40;;;;;;2058361;28;20536;-80
2020/12/23 04:31:31;;;;;;;50.78;15.00;;;10.20;94.40;;;;;;2058000;28;20524;-81
2020/12/23 04:32:32;;;;;;;54.97;16.30;;;10.20;94.40;;;;;;2059540;28;20493;-80
2020/12/23 04:33:32;;;;;;;58.50;16.00;;;10.20;94.40;;;;;;2054681;28;20432;-80
2020/12/23 04:34:33;;;;;;;58.75;16.20;;;10.20;94.40;;;;;;2049956;28;20055;-80
2020/12/23 04:35:33;;;;;;;40.88;15.20;;;10.20;94.40;;;;;;2065183;28;20047;-79
2020/12/23 04:36:34;;;;;;;36.80;15.30;;;10.20;94.40;;;;;;2065687;28;20023;-79
2020/12/23 04:37:35;;;;;;;38.70;15.30;;;10.20;94.40;;;;;;2059386;28;20007;-79
2020/12/23 04:38:36;;;;;;;43.97;15.07;;;10.20;94.40;;;;;;2065954;28;20030;-79
2020/12/23 04:39:38;;;;;;;34.50;13.93;;;10.20;94.40;;;;;;2057920;28;20043;-79
2020/12/23 04:40:39;;;;;;;33.40;14.52;;;10.20;94.40;;;;;;2057765;28;20178;-79
2020/12/23 04:41:40;;;;;;;42.47;15.50;;;10.20;94.40;;;;;;2058664;28;20039;-79
2020/12/23 04:42:40;;;;;;;44.95;14.45;;;10.20;94.70;;;;;;2057803;28;20461;-79
2020/12/23 04:43:41;;;;;;;36.58;14.02;;;10.20;94.40;;;;;;2056173;28;20073;-79
2020/12/23 04:44:42;;;;;;;36.95;15.43;;;10.20;94.40;;;;;;2058100;28;20042;-80
2020/12/23 04:45:43;;;;;;;47.35;15.48;;;10.20;94.40;;;;;;2057749;28;20117;-79
2020/12/23 04:46:43;;;;;;;36.70;15.32;;;10.20;94.40;;;;;;2057426;28;20042;-80
2020/12/23 04:47:45;;;;;;;36.33;14.65;;;10.20;94.40;;;;;;2052253;28;20026;-79
2020/12/23 04:48:53;;;;;;;64.75;16.65;;;10.30;94.40;;;;;;2054634;28;20027;-79
2020/12/23 04:49:57;;;;;;;41.75;15.45;;;10.20;94.40;;;;;;2050092;28;20129;-79
2020/12/23 04:50:57;;;;;;;43.63;15.70;;;10.20;94.40;;;;;;2049919;28;20086;-80
2020/12/23 04:51:58;;;;;;;36.05;15.23;;;10.30;94.40;;;;;;2053045;28;20445;-79
2020/12/23 04:52:59;;;;;;;40.17;14.52;;;10.20;94.40;;;;;;2057253;28;20457;-80
2020/12/23 04:54:02;;;;;;;45.03;14.52;;;10.30;94.40;;;;;;2057793;28;20033;-80
2020/12/23 04:55:05;;;;;;;33.30;14.43;;;10.30;94.40;;;;;;2058009;28;20137;-79
2020/12/23 04:56:06;;;;;;;30.95;14.23;;;10.30;94.40;;;;;;2057087;28;20444;-79
2020/12/23 04:57:06;;;;;;;33.42;14.20;;;10.30;94.40;;;;;;2050133;28;20093;-79
2020/12/23 04:58:08;;;;;;;35.65;14.75;;;10.30;94.40;;;;;;2056361;28;20065;-80
2020/12/23 04:59:08;;;;;;;40.38;15.07;;;10.30;94.40;;;;;;2053058;28;20020;-80
2020/12/23 05:00:09;;;;;;;29.65;14.20;;;10.30;94.40;;;;;;2049531;28;20113;-80
2020/12/23 05:01:10;;;;;;;28.27;14.30;;;10.30;94.40;;;;;;2056885;28;20481;-80
2020/12/23 05:02:10;;;;;;;31.35;14.45;;;10.30;94.40;;;;;;2057443;28;20062;-80
2020/12/23 05:03:11;;;;;;;40.17;15.27;;;10.30;94.40;;;;;;2057418;28;20450;-80
2020/12/23 05:04:12;;;;;;;36.95;16.25;;;10.30;94.50;;;;;;2058950;28;20480;-80
2020/12/23 05:05:12;;;;;;;28.90;15.25;;;10.30;94.40;;;;;;2057222;28;20031;-80
2020/12/23 05:06:13;;;;;;;30.17;14.88;;;10.30;94.40;;;;;;2057243;28;20093;-79
2020/12/23 05:07:19;;;;;;;28.58;14.55;;;10.40;94.50;;;;;;2056427;28;20039;-79
2020/12/23 05:08:19;;;;;;;29.23;14.85;;;10.30;94.50;;;;;;2056189;28;20030;-80
2020/12/23 05:09:20;;;;;;;27.50;13.52;;;10.30;94.50;;;;;;2056881;28;20122;-79
2020/12/23 05:10:21;;;;;;;28.30;14.68;;;10.30;94.50;;;;;;2057395;28;20034;-80
2020/12/23 05:11:22;;;;;;;25.23;12.88;;;10.40;94.50;;;;;;2050608;28;20043;-80